Time;durP1;ratioP1;P1;durP2;ratioP2;P2;SDS_P1;SDS_P2;PMS_P1;PMS_P2;Temp;Humidity;BMP_temperature;BMP_pressure;BME280_temperature;BME280_humidity;BME280_pressure;Samples;Min_cycle;Max_cycle;Signal;HPM_P1;HPM_P2
2020/12/15 00:01:06;;;;;;;18.00;10.98;;;6.30;99.90;;;;;;4966091;29;20136;-78
2020/12/15 00:03:32;;;;;;;17.38;10.98;;;6.10;99.90;;;;;;4973562;29;20042;-78
2020/12/15 00:05:57;;;;;;;14.25;9.93;;;6.00;99.90;;;;;;4969704;28;20091;-77
2020/12/15 00:08:23;;;;;;;20.50;11.90;;;5.90;99.90;;;;;;4967160;28;20047;-76
2020/12/15 00:10:48;;;;;;;17.70;11.02;;;5.70;99.90;;;;;;4974243;28;20108;-76
2020/12/15 00:13:14;;;;;;;14.15;10.32;;;5.70;99.90;;;;;;4963747;28;20027;-77
2020/12/15 00:15:40;;;;;;;17.15;11.25;;;5.70;99.90;;;;;;4959184;29;20138;-77
2020/12/15 00:18:05;;;;;;;13.23;9.52;;;5.60;99.90;;;;;;4973019;28;20055;-77
2020/12/15 00:20:31;;;;;;;13.00;10.20;;;5.60;99.90;;;;;;4975285;28;20028;-78
2020/12/15 00:22:57;;;;;;;14.23;10.80;;;5.60;99.90;;;;;;4967063;28;20039;-77
2020/12/15 00:25:23;;;;;;;12.45;10.43;;;5.60;99.90;;;;;;4977008;28;20062;-76
2020/12/15 00:27:49;;;;;;;17.67;11.43;;;5.60;99.90;;;;;;4978350;28;20039;-77
2020/12/15 00:30:14;;;;;;;14.82;10.75;;;5.60;99.90;;;;;;4969315;28;20036;-77
2020/12/15 00:32:40;;;;;;;18.30;11.07;;;5.60;99.90;;;;;;4970068;28;20039;-76
2020/12/15 00:35:06;;;;;;;14.73;10.15;;;5.60;99.90;;;;;;4969214;28;20094;-78
2020/12/15 00:37:33;;;;;;;13.27;9.93;;;5.80;99.90;;;;;;4961713;28;20035;-77
2020/12/15 00:39:59;;;;;;;13.25;10.15;;;5.70;99.90;;;;;;4961506;28;20035;-77
2020/12/15 00:42:25;;;;;;;12.20;10.00;;;6.00;99.90;;;;;;4961084;29;20037;-78
2020/12/15 00:44:50;;;;;;;11.80;10.00;;;5.90;99.90;;;;;;4953276;28;20035;-78
2020/12/15 00:47:16;;;;;;;14.15;10.52;;;5.90;99.90;;;;;;4950433;29;20027;-77
2020/12/15 00:49:41;;;;;;;15.93;10.40;;;5.90;99.90;;;;;;4955407;28;20061;-78
2020/12/15 00:52:07;;;;;;;15.93;11.18;;;6.10;99.90;;;;;;4960619;28;20039;-79
2020/12/15 00:54:44;;;;;;;15.38;10.55;;;6.00;99.90;;;;;;4962288;28;20043;-78
2020/12/15 00:57:10;;;;;;;14.90;10.18;;;5.90;99.90;;;;;;4951815;29;20031;-79
2020/12/15 00:59:35;;;;;;;14.02;10.80;;;5.90;99.90;;;;;;4953961;29;20027;-78
2020/12/15 01:02:03;;;;;;;12.73;10.60;;;5.80;99.90;;;;;;4965648;28;20035;-78
2020/12/15 01:04:28;;;;;;;14.88;9.77;;;5.80;99.90;;;;;;4962518;28;20091;-77
2020/12/15 01:06:54;;;;;;;12.95;9.10;;;5.80;99.90;;;;;;4965521;28;20094;-75
2020/12/15 01:09:20;;;;;;;12.02;9.68;;;5.80;99.90;;;;;;4964830;28;20019;-77
2020/12/15 01:11:47;;;;;;;11.27;9.57;;;5.90;99.90;;;;;;4977127;28;20054;-77
2020/12/15 01:14:17;;;;;;;12.57;10.00;;;5.90;99.90;;;;;;4961195;28;20044;-77
2020/12/15 01:16:42;;;;;;;15.00;10.43;;;5.80;99.90;;;;;;4964307;28;20042;-78
2020/12/15 01:19:08;;;;;;;12.43;9.85;;;5.80;99.90;;;;;;4968289;29;20043;-77
2020/12/15 01:21:33;;;;;;;11.23;9.80;;;5.90;99.90;;;;;;4962747;29;20040;-77
2020/12/15 01:23:59;;;;;;;16.38;9.98;;;5.90;99.90;;;;;;4986448;28;20023;-77
2020/12/15 01:26:25;;;;;;;13.50;9.65;;;5.90;99.90;;;;;;4978747;28;20084;-77
2020/12/15 01:28:51;;;;;;;13.82;9.80;;;5.90;99.90;;;;;;4975595;28;20024;-77
2020/12/15 01:31:23;;;;;;;13.15;9.65;;;6.00;99.90;;;;;;4974224;28;20034;-76
2020/12/15 01:33:49;;;;;;;15.43;9.43;;;6.00;99.90;;;;;;4979333;28;20051;-76
2020/12/15 01:36:15;;;;;;;11.15;9.02;;;6.00;99.90;;;;;;4978432;28;20062;-78
2020/12/15 01:38:41;;;;;;;15.93;9.27;;;6.10;99.90;;;;;;4961908;28;20016;-77
2020/12/15 01:41:07;;;;;;;11.55;9.38;;;6.10;99.90;;;;;;4974541;28;20032;-78
2020/12/15 01:43:34;;;;;;;13.20;9.18;;;6.00;99.90;;;;;;4964356;28;20039;-77
2020/12/15 01:46:00;;;;;;;10.27;8.55;;;6.00;99.90;;;;;;4975139;28;20112;-77
2020/12/15 01:48:25;;;;;;;13.27;9.02;;;6.00;99.90;;;;;;4968254;28;20035;-77
2020/12/15 01:50:51;;;;;;;10.90;8.98;;;6.00;99.90;;;;;;4984459;28;20023;-77
2020/12/15 01:53:16;;;;;;;11.00;9.48;;;6.20;99.90;;;;;;4988205;28;20030;-77
2020/12/15 01:55:44;;;;;;;11.30;9.30;;;6.40;99.90;;;;;;4965373;29;20042;-78
2020/12/15 01:58:10;;;;;;;12.23;8.85;;;6.20;99.90;;;;;;4972668;28;20074;-77
2020/12/15 02:00:35;;;;;;;11.48;10.15;;;6.10;99.90;;;;;;4934699;28;20050;-79
2020/12/15 02:03:02;;;;;;;11.48;9.20;;;6.10;99.90;;;;;;4969448;28;20016;-78
2020/12/15 02:05:29;;;;;;;10.77;8.95;;;6.10;99.90;;;;;;4975121;29;20050;-78
2020/12/15 02:07:55;;;;;;;10.18;8.90;;;6.40;99.90;;;;;;4980222;28;20047;-77
2020/12/15 02:10:21;;;;;;;10.43;8.73;;;6.40;99.90;;;;;;4968007;28;20047;-77
2020/12/15 02:12:49;;;;;;;11.63;8.77;;;6.40;99.90;;;;;;4980715;28;20096;-76
2020/12/15 02:15:15;;;;;;;11.57;9.35;;;6.30;99.90;;;;;;4979834;28;20031;-76
2020/12/15 02:17:40;;;;;;;10.10;9.07;;;6.20;99.90;;;;;;4981294;28;20036;-76
2020/12/15 02:20:08;;;;;;;11.60;10.13;;;6.10;99.90;;;;;;4980835;28;20116;-76
2020/12/15 02:22:33;;;;;;;12.55;8.73;;;6.10;99.90;;;;;;4989434;28;20027;-77
2020/12/15 02:24:59;;;;;;;10.95;9.32;;;6.10;99.90;;;;;;4978170;28;20046;-76
2020/12/15 02:27:25;;;;;;;11.75;8.95;;;6.10;99.90;;;;;;4986394;28;20090;-77
2020/12/15 02:29:51;;;;;;;11.57;10.05;;;6.10;99.90;;;;;;4959474;28;20034;-78
2020/12/15 02:32:16;;;;;;;10.38;9.10;;;6.10;99.90;;;;;;4964486;28;20016;-78
2020/12/15 02:34:42;;;;;;;16.80;11.50;;;6.30;99.90;;;;;;4983601;28;20071;-77
2020/12/15 02:37:08;;;;;;;10.95;8.32;;;6.30;99.90;;;;;;4955396;28;20039;-78
2020/12/15 02:39:34;;;;;;;13.82;10.23;;;6.50;99.90;;;;;;4960545;28;20024;-78
2020/12/15 02:42:00;;;;;;;14.20;9.57;;;6.50;99.90;;;;;;4958922;28;20133;-77
2020/12/15 02:44:26;;;;;;;15.38;9.68;;;6.60;99.90;;;;;;4956569;29;20027;-77
2020/12/15 02:46:52;;;;;;;11.57;9.55;;;6.50;99.90;;;;;;4957096;29;20575;-77
2020/12/15 02:49:18;;;;;;;11.45;9.45;;;6.50;99.90;;;;;;4958583;28;20023;-77
2020/12/15 02:51:50;;;;;;;12.25;9.85;;;6.60;99.90;;;;;;4960946;28;20043;-78
2020/12/15 02:54:17;;;;;;;13.15;9.38;;;6.60;99.90;;;;;;4961361;28;20066;-79
2020/12/15 02:56:43;;;;;;;10.48;9.43;;;6.50;99.90;;;;;;4950422;28;20040;-78
2020/12/15 02:59:09;;;;;;;12.90;8.75;;;6.50;99.90;;;;;;4958869;28;20074;-78
2020/12/15 03:01:43;;;;;;;12.32;9.68;;;6.60;99.90;;;;;;4966294;28;20034;-78
2020/12/15 03:04:10;;;;;;;12.95;10.77;;;6.50;99.90;;;;;;4964097;28;20464;-79
2020/12/15 03:06:36;;;;;;;13.52;10.60;;;6.20;99.90;;;;;;4963699;29;20019;-78
2020/12/15 03:09:06;;;;;;;12.90;11.18;;;6.40;99.90;;;;;;4969607;28;20042;-78
2020/12/15 03:11:32;;;;;;;16.33;11.45;;;6.40;99.90;;;;;;4964343;29;20024;-77
2020/12/15 03:13:57;;;;;;;15.20;11.05;;;6.30;99.90;;;;;;4978054;28;20099;-78
2020/12/15 03:16:23;;;;;;;15.00;11.32;;;6.30;99.90;;;;;;4968195;29;20040;-78
2020/12/15 03:18:48;;;;;;;22.85;12.10;;;6.20;99.90;;;;;;4948476;29;20028;-78
2020/12/15 03:21:17;;;;;;;13.55;10.60;;;6.20;99.90;;;;;;4965843;28;20079;-78
2020/12/15 03:23:42;;;;;;;14.80;10.02;;;6.10;99.90;;;;;;4966575;28;20035;-78
2020/12/15 03:26:08;;;;;;;12.05;9.50;;;6.10;99.90;;;;;;4963393;28;20061;-76
2020/12/15 03:28:34;;;;;;;11.68;9.73;;;6.10;99.90;;;;;;4954889;29;20033;-78
2020/12/15 03:30:59;;;;;;;13.93;10.10;;;6.10;99.90;;;;;;4952531;29;20031;-77
2020/12/15 03:33:25;;;;;;;12.70;10.45;;;6.40;99.90;;;;;;4957719;28;20027;-77
2020/12/15 03:35:51;;;;;;;14.75;10.18;;;6.30;99.90;;;;;;4954531;28;20163;-77
2020/12/15 03:38:16;;;;;;;21.23;9.93;;;6.20;99.90;;;;;;4968017;28;20042;-78
2020/12/15 03:40:42;;;;;;;12.50;8.98;;;6.10;99.90;;;;;;4961950;28;20245;-77
2020/12/15 03:43:07;;;;;;;13.60;9.43;;;6.30;99.90;;;;;;4968647;29;20039;-76
2020/12/15 03:45:33;;;;;;;15.05;10.38;;;6.20;99.90;;;;;;4958282;29;20031;-77
2020/12/15 03:47:59;;;;;;;11.60;9.38;;;6.20;99.90;;;;;;4964261;28;20038;-77
2020/12/15 03:50:24;;;;;;;10.98;9.55;;;6.40;99.90;;;;;;4943250;29;20032;-77
2020/12/15 03:52:50;;;;;;;10.45;9.25;;;6.50;99.90;;;;;;4952443;28;20039;-77
2020/12/15 03:55:21;;;;;;;14.60;11.13;;;6.60;99.90;;;;;;4953252;29;20066;-79
2020/12/15 03:57:48;;;;;;;13.90;11.90;;;6.50;99.90;;;;;;4955835;28;20280;-77
2020/12/15 04:00:14;;;;;;;16.10;10.80;;;6.30;99.90;;;;;;4958749;28;20040;-77
2020/12/15 04:02:39;;;;;;;13.02;9.63;;;6.30;99.90;;;;;;4968895;28;20031;-78
2020/12/15 04:05:05;;;;;;;11.32;10.13;;;6.30;99.90;;;;;;4960015;29;20035;-78
2020/12/15 04:07:30;;;;;;;10.73;9.63;;;6.20;99.90;;;;;;4956459;29;20058;-78
2020/12/15 04:09:56;;;;;;;11.68;8.68;;;6.20;99.90;;;;;;4957535;28;20034;-79
2020/12/15 04:12:21;;;;;;;11.57;9.52;;;6.30;99.90;;;;;;4952243;29;20027;-79
2020/12/15 04:14:47;;;;;;;12.63;9.13;;;6.30;99.90;;;;;;4961349;29;20046;-77
2020/12/15 04:17:12;;;;;;;11.48;10.18;;;6.50;99.90;;;;;;4971422;28;20055;-77
2020/12/15 04:19:38;;;;;;;13.35;10.88;;;6.60;99.90;;;;;;4954395;29;20118;-79
2020/12/15 04:22:04;;;;;;;11.20;9.32;;;6.40;99.90;;;;;;4962386;29;20039;-77
2020/12/15 04:24:30;;;;;;;11.20;9.48;;;6.40;99.90;;;;;;4961220;29;20031;-77
2020/12/15 04:26:57;;;;;;;11.80;10.20;;;6.60;99.90;;;;;;4960626;29;20034;-78
2020/12/15 04:29:23;;;;;;;10.60;9.50;;;6.70;99.90;;;;;;4979849;28;20091;-77
2020/12/15 04:31:48;;;;;;;10.70;9.38;;;6.80;99.90;;;;;;4942982;29;20036;-77
2020/12/15 04:34:14;;;;;;;11.23;9.18;;;6.40;99.90;;;;;;4951779;29;20040;-78
2020/12/15 04:36:40;;;;;;;10.95;8.45;;;6.40;99.90;;;;;;4949153;29;20098;-77
2020/12/15 04:39:05;;;;;;;11.43;8.80;;;6.70;99.90;;;;;;4943118;29;20058;-78
2020/12/15 04:41:31;;;;;;;14.23;9.82;;;6.70;99.90;;;;;;5008874;23;20085;-74
2020/12/15 04:43:59;;;;;;;10.50;8.20;;;6.50;99.90;;;;;;4983920;28;20085;-75
2020/12/15 04:46:27;;;;;;;11.63;9.32;;;6.60;99.90;;;;;;4997779;28;20031;-77
2020/12/15 04:49:06;;;;;;;11.50;9.25;;;6.50;99.90;;;;;;4980309;28;20023;-76
2020/12/15 04:51:43;;;;;;;9.90;8.68;;;6.40;99.90;;;;;;4982669;28;20089;-79
2020/12/15 04:54:15;;;;;;;11.60;8.68;;;6.30;99.90;;;;;;4974954;28;20034;-77
2020/12/15 04:56:43;;;;;;;10.88;8.40;;;6.30;99.90;;;;;;4985120;28;20031;-76
2020/12/15 04:59:12;;;;;;;9.70;8.52;;;6.30;99.90;;;;;;4979018;28;20138;-76
2020/12/15 05:01:40;;;;;;;10.75;8.57;;;6.30;99.90;;;;;;4991057;28;20026;-76
2020/12/15 05:04:09;;;;;;;8.48;7.57;;;6.30;99.90;;;;;;4987943;28;20034;-76
2020/12/15 05:06:37;;;;;;;11.32;8.75;;;6.30;99.90;;;;;;4979894;28;20054;-76
2020/12/15 05:09:03;;;;;;;15.07;8.55;;;6.20;99.90;;;;;;4983322;28;20371;-75
2020/12/15 05:11:28;;;;;;;12.23;8.88;;;6.40;99.90;;;;;;4992774;28;20023;-76
2020/12/15 05:13:54;;;;;;;12.30;9.40;;;6.60;99.90;;;;;;4980973;28;20027;-76
2020/12/15 05:16:20;;;;;;;12.05;9.05;;;6.80;99.90;;;;;;4983640;28;20470;-76
2020/12/15 05:18:45;;;;;;;15.00;9.82;;;6.90;99.90;;;;;;4980004;28;20105;-75
2020/12/15 05:21:16;;;;;;;11.60;9.50;;;6.90;99.90;;;;;;4987533;28;20106;-75
2020/12/15 05:23:50;;;;;;;14.23;9.15;;;6.80;99.90;;;;;;4998328;28;20027;-75
2020/12/15 05:26:25;;;;;;;11.93;9.15;;;6.80;99.90;;;;;;4978412;28;20023;-76
2020/12/15 05:29:08;;;;;;;11.10;9.15;;;6.70;99.90;;;;;;4993389;28;20026;-76
2020/12/15 05:31:40;;;;;;;12.15;9.68;;;6.50;99.90;;;;;;4982279;28;20110;-76
2020/12/15 05:34:10;;;;;;;12.25;8.05;;;6.40;99.90;;;;;;4996040;28;20027;-75
2020/12/15 05:36:36;;;;;;;9.43;7.47;;;6.30;99.90;;;;;;4993233;28;20478;-76
2020/12/15 05:39:06;;;;;;;11.50;9.05;;;6.60;99.90;;;;;;4986936;28;20026;-76
2020/12/15 05:41:33;;;;;;;10.38;8.48;;;6.60;99.90;;;;;;4997734;28;20093;-76
2020/12/15 05:44:00;;;;;;;12.10;8.98;;;6.60;99.90;;;;;;5005327;28;20034;-76
2020/12/15 05:46:30;;;;;;;10.90;8.38;;;6.50;99.90;;;;;;4999418;28;20058;-76
2020/12/15 05:49:05;;;;;;;12.82;7.88;;;6.50;99.90;;;;;;4983893;28;20034;-76
2020/12/15 05:51:41;;;;;;;12.10;8.15;;;6.70;99.90;;;;;;4994463;28;20019;-76
2020/12/15 05:54:14;;;;;;;12.07;8.80;;;6.80;99.90;;;;;;4988546;28;20052;-75
2020/12/15 05:56:41;;;;;;;11.10;8.45;;;6.80;99.90;;;;;;4978604;28;20037;-76
2020/12/15 05:59:17;;;;;;;10.73;8.32;;;6.70;99.90;;;;;;4981348;28;20113;-76
2020/12/15 06:01:44;;;;;;;11.85;8.52;;;6.70;99.90;;;;;;4997508;28;20041;-76
2020/12/15 06:04:10;;;;;;;10.63;8.50;;;6.60;99.90;;;;;;4995211;28;20023;-76
2020/12/15 06:06:37;;;;;;;10.43;8.65;;;6.60;99.90;;;;;;4991558;28;20025;-76
2020/12/15 06:09:03;;;;;;;9.70;8.25;;;6.60;99.90;;;;;;5008214;28;20040;-76
2020/12/15 06:11:32;;;;;;;10.50;8.20;;;6.70;99.90;;;;;;4988123;28;20026;-80
2020/12/15 06:14:00;;;;;;;10.45;8.15;;;6.70;99.90;;;;;;5003849;28;20117;-75
2020/12/15 06:16:25;;;;;;;9.55;7.45;;;6.80;99.90;;;;;;4978667;28;20027;-76
2020/12/15 06:18:51;;;;;;;9.98;7.20;;;6.80;99.90;;;;;;4990004;28;20031;-75
2020/12/15 06:21:17;;;;;;;9.05;7.25;;;6.70;99.90;;;;;;4991203;28;20109;-76
2020/12/15 06:23:44;;;;;;;10.35;7.55;;;6.70;99.90;;;;;;4983565;28;20037;-76
2020/12/15 06:26:09;;;;;;;11.80;8.52;;;6.60;99.90;;;;;;4979277;28;20027;-75
2020/12/15 06:28:35;;;;;;;10.10;7.85;;;6.60;99.90;;;;;;4983067;28;20027;-77
2020/12/15 06:31:00;;;;;;;9.52;6.82;;;6.60;99.90;;;;;;4988738;28;20050;-77
2020/12/15 06:33:34;;;;;;;12.57;8.80;;;6.60;99.90;;;;;;5004692;28;20023;-76
2020/12/15 06:36:00;;;;;;;12.45;7.63;;;6.60;99.90;;;;;;4981785;28;20109;-77
2020/12/15 06:38:25;;;;;;;9.02;7.22;;;6.60;99.90;;;;;;4980108;28;20560;-77
2020/12/15 06:40:51;;;;;;;9.98;7.75;;;6.60;99.90;;;;;;4992747;28;20398;-77
2020/12/15 06:43:29;;;;;;;10.38;8.20;;;6.60;99.90;;;;;;4986024;28;20042;-76
2020/12/15 06:46:04;;;;;;;12.15;7.95;;;6.60;99.90;;;;;;5003743;28;20038;-76
2020/12/15 06:48:30;;;;;;;9.68;8.02;;;6.60;99.90;;;;;;5002213;28;20514;-76
2020/12/15 06:50:56;;;;;;;11.32;6.68;;;6.60;99.90;;;;;;5010790;28;20046;-74
2020/12/15 06:53:21;;;;;;;8.98;7.50;;;6.80;99.90;;;;;;5021485;28;20037;-74
2020/12/15 06:55:58;;;;;;;9.68;7.25;;;7.00;99.90;;;;;;5000123;28;20069;-74
2020/12/15 06:58:24;;;;;;;10.27;8.10;;;7.00;99.90;;;;;;5006287;28;20026;-75
2020/12/15 07:00:49;;;;;;;11.30;7.15;;;6.90;99.90;;;;;;4984208;28;20041;-76
2020/12/15 07:03:17;;;;;;;9.25;6.85;;;6.80;99.90;;;;;;4983285;28;20031;-76
2020/12/15 07:05:43;;;;;;;14.77;7.05;;;6.70;99.90;;;;;;4980669;28;20213;-76
2020/12/15 07:08:14;;;;;;;18.58;6.97;;;6.90;99.90;;;;;;4983031;28;20043;-76
2020/12/15 07:10:42;;;;;;;15.95;8.10;;;7.10;99.90;;;;;;4984262;28;20364;-76
2020/12/15 07:13:10;;;;;;;13.52;7.38;;;7.20;99.90;;;;;;4984617;28;20441;-76
2020/12/15 07:15:36;;;;;;;11.52;6.82;;;7.10;99.90;;;;;;4984649;28;20030;-77
2020/12/15 07:18:03;;;;;;;10.18;7.72;;;7.20;99.90;;;;;;4983996;28;20049;-76
2020/12/15 07:20:29;;;;;;;9.63;8.10;;;7.30;99.90;;;;;;4984824;28;20101;-74
2020/12/15 07:22:55;;;;;;;9.68;7.50;;;7.20;99.90;;;;;;4982289;28;20526;-76
2020/12/15 07:25:21;;;;;;;10.73;7.57;;;7.30;99.90;;;;;;4986255;28;20562;-77
2020/12/15 07:27:47;;;;;;;9.20;7.53;;;7.20;99.90;;;;;;4985319;28;20046;-75
2020/12/15 07:30:19;;;;;;;10.13;7.78;;;7.10;99.90;;;;;;4987033;28;20026;-75
2020/12/15 07:32:46;;;;;;;8.88;7.97;;;7.10;99.90;;;;;;4987207;28;20097;-77
2020/12/15 07:35:17;;;;;;;11.05;8.35;;;7.10;99.90;;;;;;4999173;28;20034;-76
2020/12/15 07:37:44;;;;;;;10.20;7.88;;;7.20;99.90;;;;;;4988241;28;20031;-75
2020/12/15 07:40:13;;;;;;;12.40;9.35;;;7.20;99.90;;;;;;5002167;28;20062;-76
2020/12/15 07:43:00;;;;;;;10.13;8.32;;;7.00;99.90;;;;;;4996564;28;20406;-77
2020/12/15 07:45:32;;;;;;;9.27;7.35;;;7.10;99.90;;;;;;4991235;28;20571;-78
2020/12/15 07:47:58;;;;;;;13.30;8.35;;;7.20;99.90;;;;;;5005071;28;20035;-76
2020/12/15 07:50:28;;;;;;;13.05;8.10;;;7.30;99.90;;;;;;4985190;28;20485;-75
2020/12/15 07:52:56;;;;;;;11.80;7.90;;;7.30;99.90;;;;;;4982307;28;20224;-77
2020/12/15 07:55:23;;;;;;;16.55;8.57;;;7.40;99.90;;;;;;4991769;28;20038;-75
2020/12/15 07:57:49;;;;;;;10.18;7.53;;;7.40;99.90;;;;;;4997211;28;20036;-75
2020/12/15 08:00:18;;;;;;;11.52;7.82;;;7.30;99.90;;;;;;4991011;28;20027;-75
2020/12/15 08:03:02;;;;;;;13.82;9.43;;;7.10;99.90;;;;;;5004180;28;20029;-75
2020/12/15 08:05:40;;;;;;;16.95;9.32;;;7.00;99.90;;;;;;5017111;28;20034;-73
2020/12/15 08:08:07;;;;;;;14.50;8.73;;;6.90;99.90;;;;;;5005083;28;20042;-75
2020/12/15 08:10:35;;;;;;;11.32;8.35;;;7.00;99.90;;;;;;5007958;28;20030;-75
2020/12/15 08:13:07;;;;;;;10.60;8.55;;;7.10;99.90;;;;;;4987117;28;20042;-77
2020/12/15 08:15:40;;;;;;;9.25;7.18;;;7.20;99.90;;;;;;4988486;28;20042;-76
2020/12/15 08:18:10;;;;;;;10.30;7.78;;;7.20;99.90;;;;;;4988493;28;20090;-77
2020/12/15 08:20:36;;;;;;;11.07;8.10;;;7.40;99.90;;;;;;4997480;28;20037;-76
2020/12/15 08:23:23;;;;;;;12.40;8.35;;;7.60;99.90;;;;;;4987326;28;20027;-76
2020/12/15 08:25:56;;;;;;;13.30;7.88;;;7.60;99.90;;;;;;4991766;28;20034;-76
2020/12/15 08:28:22;;;;;;;12.00;7.82;;;7.50;99.90;;;;;;4997547;28;20027;-76
2020/12/15 08:30:52;;;;;;;10.27;7.45;;;7.60;99.90;;;;;;4991292;28;20109;-74
2020/12/15 08:36:17;;;;;;;11.98;7.68;;;7.50;99.90;;;;;;4990304;28;20037;-77
2020/12/15 08:38:44;;;;;;;12.65;7.47;;;7.30;99.90;;;;;;4982743;28;20035;-75
2020/12/15 08:41:15;;;;;;;9.30;7.57;;;7.30;99.90;;;;;;4992400;28;20038;-76
2020/12/15 08:43:40;;;;;;;9.75;7.22;;;7.30;99.90;;;;;;4988955;28;20483;-77
2020/12/15 08:46:17;;;;;;;9.75;7.55;;;7.40;99.90;;;;;;4981786;28;20037;-76
2020/12/15 08:48:42;;;;;;;16.13;8.27;;;7.40;99.90;;;;;;4985979;28;20034;-76
2020/12/15 08:51:16;;;;;;;20.30;8.88;;;7.30;99.90;;;;;;4984181;28;20542;-77
2020/12/15 08:53:46;;;;;;;12.10;8.23;;;7.40;99.90;;;;;;4999298;28;20042;-76
2020/12/15 08:56:13;;;;;;;10.65;8.45;;;7.40;99.90;;;;;;4993384;28;20050;-76
2020/12/15 08:58:39;;;;;;;13.60;8.27;;;7.50;99.90;;;;;;4995012;28;20023;-76
2020/12/15 09:01:05;;;;;;;15.63;7.55;;;7.50;99.90;;;;;;4992952;28;20046;-76
2020/12/15 09:03:51;;;;;;;11.50;8.25;;;7.30;99.90;;;;;;5013852;28;20125;-76
2020/12/15 09:06:39;;;;;;;13.02;8.63;;;7.20;99.90;;;;;;4999944;28;20046;-75
2020/12/15 09:09:06;;;;;;;8.68;7.47;;;7.20;99.90;;;;;;4969896;28;20062;-77
2020/12/15 09:11:32;;;;;;;14.90;6.85;;;7.20;99.90;;;;;;4998699;28;20033;-76
2020/12/15 09:14:00;;;;;;;7.70;6.57;;;7.30;99.90;;;;;;5004147;28;20426;-76
2020/12/15 09:16:38;;;;;;;9.32;6.90;;;7.40;99.90;;;;;;4989702;28;20033;-77
2020/12/15 09:19:47;;;;;;;10.13;7.43;;;7.40;99.90;;;;;;4991074;28;20026;-76
2020/12/15 09:22:16;;;;;;;11.52;7.75;;;7.40;99.90;;;;;;4997935;28;20041;-77
2020/12/15 09:24:54;;;;;;;10.70;7.47;;;7.40;99.90;;;;;;5001111;28;20026;-75
2020/12/15 09:27:34;;;;;;;;;;;;;;;;;;;;;
2020/12/15 09:30:38;;;;;;;11.82;8.10;;;7.50;99.90;;;;;;4997095;28;20446;-75
2020/12/15 09:33:08;;;;;;;11.57;7.35;;;7.50;99.90;;;;;;4976476;28;20035;-77
2020/12/15 09:35:49;;;;;;;9.27;7.57;;;7.80;99.90;;;;;;5001325;28;20040;-76
2020/12/15 09:38:40;;;;;;;12.27;7.45;;;8.00;99.90;;;;;;4990883;28;20277;-77
2020/12/15 09:41:06;;;;;;;9.68;7.05;;;7.90;99.90;;;;;;5010844;28;20358;-77
2020/12/15 09:43:52;;;;;;;11.82;7.57;;;7.80;99.90;;;;;;5005075;28;20030;-77
2020/12/15 09:46:19;;;;;;;11.55;7.80;;;7.70;99.90;;;;;;5004090;28;20064;-75
2020/12/15 09:48:47;;;;;;;11.95;7.85;;;7.60;99.90;;;;;;4982497;28;20496;-75
2020/12/15 09:51:13;;;;;;;8.85;7.22;;;7.60;99.90;;;;;;4996105;28;20023;-76
2020/12/15 09:53:41;;;;;;;10.43;7.97;;;7.50;99.90;;;;;;4987805;28;20030;-76
2020/12/15 09:56:19;;;;;;;12.65;8.23;;;7.70;99.90;;;;;;4991982;28;20038;-76
2020/12/15 09:58:45;;;;;;;10.15;7.32;;;7.70;99.90;;;;;;4990331;28;20045;-75
2020/12/15 10:01:11;;;;;;;11.13;8.75;;;7.70;99.90;;;;;;4993201;28;20033;-75
2020/12/15 10:03:41;;;;;;;16.08;8.48;;;7.60;99.90;;;;;;5006354;28;20037;-76
2020/12/15 10:06:15;;;;;;;11.57;8.43;;;7.60;99.90;;;;;;4992804;28;20061;-76
2020/12/15 10:08:53;;;;;;;11.95;8.95;;;7.70;99.90;;;;;;5006704;28;20478;-75
2020/12/15 10:11:18;;;;;;;9.27;7.55;;;7.80;99.90;;;;;;4994665;28;20463;-76
2020/12/15 10:13:50;;;;;;;9.90;7.32;;;7.80;99.90;;;;;;4992381;28;20030;-77
2020/12/15 10:16:16;;;;;;;10.55;7.03;;;8.00;99.90;;;;;;5014971;28;20074;-75
2020/12/15 10:18:42;;;;;;;12.80;8.35;;;7.90;99.90;;;;;;5008432;28;20027;-76
2020/12/15 10:21:07;;;;;;;12.45;7.60;;;8.00;99.90;;;;;;4986286;28;20310;-76
2020/12/15 10:23:34;;;;;;;11.77;7.80;;;8.00;99.90;;;;;;4983197;28;20015;-75
2020/12/15 10:26:02;;;;;;;10.82;8.43;;;8.00;99.90;;;;;;4985098;28;20034;-76
2020/12/15 10:28:30;;;;;;;10.70;8.32;;;8.00;99.90;;;;;;4996027;28;20026;-76
2020/12/15 10:30:59;;;;;;;9.57;8.27;;;8.00;99.90;;;;;;4982784;28;20030;-77
2020/12/15 10:33:25;;;;;;;14.73;7.68;;;8.10;99.90;;;;;;4986209;28;20030;-77
2020/12/15 10:35:56;;;;;;;10.35;7.90;;;8.30;99.90;;;;;;5000217;28;20041;-77
2020/12/15 10:38:22;;;;;;;11.88;8.30;;;8.20;99.90;;;;;;5013006;28;20026;-77
2020/12/15 10:40:47;;;;;;;10.20;8.02;;;8.20;99.90;;;;;;5015919;23;20225;-78
2020/12/15 10:43:16;;;;;;;15.52;8.68;;;8.20;99.90;;;;;;5016271;28;20056;-78
2020/12/15 10:45:42;;;;;;;11.00;7.75;;;8.20;99.90;;;;;;5014447;28;20026;-79
2020/12/15 10:48:07;;;;;;;11.15;8.00;;;8.30;99.90;;;;;;5008737;28;20034;-78
2020/12/15 10:50:33;;;;;;;11.60;9.23;;;8.30;99.90;;;;;;5000299;28;20037;-78
2020/12/15 10:52:58;;;;;;;14.45;8.90;;;8.50;99.90;;;;;;4984280;28;20038;-77
2020/12/15 10:55:24;;;;;;;12.68;8.27;;;8.50;99.90;;;;;;4987646;28;20057;-78
2020/12/15 10:57:49;;;;;;;11.27;8.38;;;8.60;99.90;;;;;;4985988;28;20034;-78
2020/12/15 11:00:15;;;;;;;11.48;8.57;;;8.60;99.90;;;;;;4990197;28;20041;-78
2020/12/15 11:02:43;;;;;;;14.52;8.30;;;8.60;99.90;;;;;;4981296;28;20105;-78
2020/12/15 11:05:08;;;;;;;11.27;7.70;;;8.60;99.90;;;;;;4989379;28;20023;-77
2020/12/15 11:07:34;;;;;;;13.52;8.68;;;8.60;99.90;;;;;;4986825;28;20026;-79
2020/12/15 11:10:01;;;;;;;13.65;9.90;;;8.60;99.90;;;;;;4983004;28;20055;-78
2020/12/15 11:12:26;;;;;;;13.63;8.35;;;8.60;99.90;;;;;;4980994;28;20034;-79
2020/12/15 11:14:52;;;;;;;15.35;9.27;;;8.70;99.90;;;;;;4989274;28;20035;-79
2020/12/15 11:17:17;;;;;;;14.52;9.57;;;8.80;99.90;;;;;;4989401;28;20038;-78
2020/12/15 11:19:43;;;;;;;11.43;8.85;;;8.70;99.90;;;;;;4987657;28;20041;-79
2020/12/15 11:22:08;;;;;;;13.70;9.77;;;8.70;99.90;;;;;;4993352;28;20038;-79
2020/12/15 11:24:34;;;;;;;11.43;9.25;;;8.70;99.90;;;;;;4996647;28;20057;-78
2020/12/15 11:27:00;;;;;;;14.60;9.00;;;8.70;99.90;;;;;;4992446;28;20114;-78
2020/12/15 11:29:25;;;;;;;15.30;10.00;;;8.70;99.90;;;;;;4990137;28;20050;-77
2020/12/15 11:31:52;;;;;;;16.10;9.60;;;8.60;99.90;;;;;;4990948;28;20037;-80
2020/12/15 11:34:19;;;;;;;12.02;9.13;;;8.60;99.90;;;;;;4998185;28;20046;-77
2020/12/15 11:36:44;;;;;;;14.32;9.45;;;8.70;99.90;;;;;;4996881;28;20036;-78
2020/12/15 11:39:11;;;;;;;16.30;10.05;;;8.70;99.90;;;;;;4994668;28;20030;-78
2020/12/15 11:41:38;;;;;;;13.38;10.85;;;8.70;99.90;;;;;;4996951;28;20505;-79
2020/12/15 11:44:04;;;;;;;17.40;11.50;;;8.70;99.90;;;;;;4994534;28;20069;-78
2020/12/15 11:46:30;;;;;;;17.67;10.95;;;8.80;99.90;;;;;;4992089;28;20034;-77
2020/12/15 11:48:55;;;;;;;16.65;10.13;;;8.70;99.90;;;;;;4997979;28;20077;-77
2020/12/15 11:51:21;;;;;;;14.45;10.05;;;8.80;99.90;;;;;;5007475;28;20026;-77
2020/12/15 11:53:49;;;;;;;20.90;11.27;;;8.80;99.90;;;;;;5011760;28;20584;-77
2020/12/15 11:56:16;;;;;;;12.93;9.45;;;9.10;99.90;;;;;;4991617;28;20042;-78
2020/12/15 11:58:42;;;;;;;11.55;9.85;;;9.10;99.90;;;;;;4997962;28;20031;-77
2020/12/15 12:01:09;;;;;;;15.77;9.70;;;9.30;99.90;;;;;;4999138;28;20023;-79
2020/12/15 12:03:34;;;;;;;17.15;9.65;;;9.20;99.90;;;;;;4991041;28;20057;-78
2020/12/15 12:06:00;;;;;;;15.85;9.98;;;9.10;99.90;;;;;;4998338;28;20027;-79
2020/12/15 12:08:27;;;;;;;14.20;9.05;;;9.40;99.90;;;;;;4980825;28;20597;-78
2020/12/15 12:10:52;;;;;;;14.10;8.77;;;9.50;99.90;;;;;;4998745;28;20030;-79
2020/12/15 12:13:18;;;;;;;12.70;9.50;;;9.40;99.90;;;;;;4987243;28;20055;-77
2020/12/15 12:15:44;;;;;;;10.73;9.13;;;9.30;99.90;;;;;;4998197;28;20037;-76
2020/12/15 12:18:09;;;;;;;12.73;9.55;;;9.40;99.90;;;;;;4993552;28;20062;-77
2020/12/15 12:20:35;;;;;;;11.10;8.88;;;9.40;99.90;;;;;;4983429;28;20023;-77
2020/12/15 12:23:01;;;;;;;19.40;12.73;;;9.70;99.90;;;;;;4982150;28;20031;-77
2020/12/15 12:25:27;;;;;;;12.88;9.68;;;9.80;99.90;;;;;;4990277;28;20054;-78
2020/12/15 12:27:54;;;;;;;11.52;8.88;;;9.70;99.90;;;;;;4988658;28;20040;-80
2020/12/15 12:30:20;;;;;;;10.70;8.60;;;9.60;99.90;;;;;;4990181;28;20086;-77
2020/12/15 12:32:45;;;;;;;15.98;9.57;;;9.80;99.90;;;;;;4991734;28;20069;-79
2020/12/15 12:35:12;;;;;;;13.70;9.52;;;9.80;99.90;;;;;;4980929;28;20027;-77
2020/12/15 12:37:38;;;;;;;12.18;10.18;;;9.70;99.90;;;;;;4989401;28;20052;-77
2020/12/15 12:40:05;;;;;;;14.52;9.55;;;9.70;99.90;;;;;;4991283;28;20105;-76
2020/12/15 12:42:34;;;;;;;12.38;9.15;;;9.60;99.90;;;;;;4988403;28;20377;-78
2020/12/15 12:44:59;;;;;;;16.13;10.15;;;9.60;99.90;;;;;;4995403;28;20038;-80
2020/12/15 12:47:25;;;;;;;11.43;8.77;;;9.50;99.90;;;;;;4996312;28;20026;-80
2020/12/15 12:49:51;;;;;;;10.65;8.52;;;9.40;99.90;;;;;;4988432;28;20023;-78
2020/12/15 12:52:16;;;;;;;12.52;9.15;;;9.40;99.90;;;;;;5008274;28;20033;-80
2020/12/15 12:54:42;;;;;;;16.17;10.32;;;9.30;99.90;;;;;;4993553;28;20233;-79